Time;durP1;ratioP1;P1;durP2;ratioP2;P2;SDS_P1;SDS_P2;PMS_P1;PMS_P2;Temp;Humidity;BMP_temperature;BMP_pressure;BME280_temperature;BME280_humidity;BME280_pressure;Samples;Min_cycle;Max_cycle;Signal;HPM_P1;HPM_P2
2023/08/18 00:01:50;;;;;;;6.05;2.92;;;21.30;98.50;;;;;;4969144;28;20045;-73
2023/08/18 00:04:16;;;;;;;9.13;3.35;;;21.30;98.20;;;;;;4985082;28;20051;-73
2023/08/18 00:06:41;;;;;;;5.95;3.05;;;21.20;98.30;;;;;;4986404;28;20049;-72
2023/08/18 00:09:07;;;;;;;5.32;3.28;;;21.20;98.50;;;;;;4986269;28;20200;-76
2023/08/18 00:11:33;;;;;;;5.47;3.55;;;21.10;98.50;;;;;;4952786;28;20034;-72
2023/08/18 00:13:59;;;;;;;8.05;3.10;;;21.10;98.80;;;;;;4986131;28;20180;-73
2023/08/18 00:16:25;;;;;;;6.38;3.30;;;21.00;98.90;;;;;;4952661;28;20105;-72
2023/08/18 00:18:50;;;;;;;6.32;3.20;;;20.90;99.00;;;;;;4986542;28;20035;-74
2023/08/18 00:21:16;;;;;;;8.13;4.15;;;20.90;99.20;;;;;;4986224;28;20138;-73
2023/08/18 00:23:44;;;;;;;6.38;4.22;;;20.80;99.40;;;;;;4985952;28;20041;-73
2023/08/18 00:26:10;;;;;;;7.53;3.33;;;20.70;99.50;;;;;;4969007;28;20317;-75
2023/08/18 00:28:35;;;;;;;9.30;3.78;;;20.70;99.50;;;;;;4985658;28;20022;-73
2023/08/18 07:22:27;;;;;;;4.55;2.63;;;23.10;94.50;;;;;;5158171;23;20100;-74
2023/08/18 07:24:52;;;;;;;3.72;2.30;;;23.20;94.30;;;;;;4986836;28;20031;-76
2023/08/18 07:27:18;;;;;;;7.55;2.70;;;23.30;93.80;;;;;;4989779;28;20069;-74
2023/08/18 07:29:44;;;;;;;4.95;2.50;;;23.40;93.60;;;;;;4985404;28;20145;-77
2023/08/18 07:32:10;;;;;;;6.78;2.50;;;23.50;93.40;;;;;;4969771;28;20028;-74
2023/08/18 07:34:36;;;;;;;5.18;2.50;;;23.60;92.90;;;;;;4969678;28;20054;-74
2023/08/18 07:37:03;;;;;;;4.25;2.00;;;23.60;92.80;;;;;;4986349;28;20042;-76
2023/08/18 07:39:29;;;;;;;7.55;1.92;;;23.70;92.00;;;;;;4977625;28;20105;-76
2023/08/18 07:41:55;;;;;;;5.00;2.08;;;23.70;91.50;;;;;;4986481;28;20379;-76
2023/08/18 07:44:21;;;;;;;6.57;2.25;;;23.80;91.50;;;;;;4986687;28;20038;-77
2023/08/18 07:46:47;;;;;;;7.25;2.33;;;23.90;91.10;;;;;;4969326;28;20034;-77
2023/08/18 07:49:13;;;;;;;5.72;2.40;;;24.10;91.00;;;;;;4969802;28;20035;-76
2023/08/18 07:51:39;;;;;;;6.35;3.00;;;24.20;90.70;;;;;;4969674;28;20039;-77
2023/08/18 07:54:06;;;;;;;7.05;3.97;;;24.30;90.60;;;;;;4969101;28;20030;-76
2023/08/18 07:56:31;;;;;;;8.80;2.63;;;24.40;90.60;;;;;;4986481;28;20105;-74
2023/08/18 07:58:57;;;;;;;6.65;2.20;;;24.40;90.70;;;;;;4986207;28;20030;-75
2023/08/18 08:01:23;;;;;;;3.67;1.88;;;24.50;90.80;;;;;;4986813;28;20308;-75
2023/08/18 08:03:55;;;;;;;7.25;2.28;;;24.60;90.70;;;;;;4985863;28;20092;-75
2023/08/18 08:06:21;;;;;;;6.43;2.50;;;24.70;90.60;;;;;;4986462;28;20031;-75
2023/08/18 08:08:46;;;;;;;4.15;2.00;;;24.80;90.50;;;;;;4985968;28;20347;-74
2023/08/18 08:11:13;;;;;;;5.00;2.17;;;24.80;90.40;;;;;;4986126;28;20030;-77
2023/08/18 08:13:39;;;;;;;5.60;2.25;;;24.90;90.20;;;;;;4986257;28;20094;-75
2023/08/18 08:16:08;;;;;;;6.45;2.03;;;25.00;90.40;;;;;;4986294;28;20031;-77
2023/08/18 08:18:37;;;;;;;9.68;3.28;;;25.20;90.20;;;;;;4986221;28;20321;-75
2023/08/18 08:21:12;;;;;;;7.82;2.80;;;25.20;90.00;;;;;;4968447;28;20066;-76
2023/08/18 08:24:04;;;;;;;4.60;2.03;;;25.40;90.00;;;;;;4967102;28;20224;-76
2023/08/18 08:26:29;;;;;;;7.03;2.65;;;25.50;89.50;;;;;;5002639;28;20065;-79
2023/08/18 08:28:55;;;;;;;6.40;2.13;;;25.50;89.90;;;;;;4978603;28;20275;-75
2023/08/18 08:31:21;;;;;;;4.70;1.80;;;25.60;88.90;;;;;;4997688;28;20127;-74
2023/08/18 08:34:15;;;;;;;5.50;1.40;;;25.70;87.80;;;;;;4992859;28;20114;-75
2023/08/18 08:36:44;;;;;;;7.43;1.63;;;25.80;85.30;;;;;;4992102;28;20030;-74
2023/08/18 08:39:12;;;;;;;3.33;1.55;;;25.90;84.40;;;;;;4994392;28;20022;-75
2023/08/18 08:41:56;;;;;;;3.97;1.80;;;26.00;83.20;;;;;;4993796;28;20039;-78
2023/08/18 08:44:25;;;;;;;7.78;3.05;;;26.10;82.20;;;;;;4968440;28;20073;-77
2023/08/18 08:46:52;;;;;;;4.30;2.53;;;26.20;81.80;;;;;;4952480;28;20015;-76
2023/08/18 08:49:23;;;;;;;6.15;1.60;;;26.20;83.30;;;;;;4985861;28;20034;-80
2023/08/18 08:51:55;;;;;;;3.28;1.45;;;26.20;83.10;;;;;;4952230;28;20034;-76
2023/08/18 08:54:25;;;;;;;4.68;1.77;;;26.30;82.50;;;;;;4952819;28;20093;-76
2023/08/18 08:57:01;;;;;;;5.43;1.60;;;26.40;82.60;;;;;;4985744;28;20027;-78
2023/08/18 08:59:30;;;;;;;4.28;1.33;;;26.40;82.70;;;;;;4969130;28;20038;-78
2023/08/18 09:01:56;;;;;;;3.83;1.45;;;26.60;82.40;;;;;;4968019;28;20261;-76
2023/08/18 09:04:24;;;;;;;7.95;1.88;;;26.70;82.30;;;;;;4985589;28;20030;-78
2023/08/18 09:06:50;;;;;;;7.03;1.90;;;26.90;81.90;;;;;;4985099;28;20038;-74
2023/08/18 09:09:18;;;;;;;7.15;3.90;;;27.00;81.00;;;;;;4952278;28;20038;-75
2023/08/18 09:11:46;;;;;;;4.13;2.20;;;27.10;80.50;;;;;;4985158;28;20038;-75
2023/08/18 09:14:16;;;;;;;4.82;2.28;;;27.10;80.00;;;;;;4959248;28;20223;-75
2023/08/18 09:16:44;;;;;;;7.57;2.08;;;27.20;80.80;;;;;;4973030;28;20093;-76
2023/08/18 09:19:13;;;;;;;;;;;27.40;79.80;;;;;;4995889;28;20127;-76
2023/08/18 09:21:55;;;;;;;4.70;1.40;;;27.40;79.20;;;;;;4990069;28;19920;-75
2023/08/18 09:24:24;;;;;;;3.17;1.45;;;27.40;79.00;;;;;;4979884;28;20031;-74
2023/08/18 09:26:51;;;;;;;4.47;1.35;;;27.50;78.90;;;;;;4983978;28;20034;-76
2023/08/18 09:29:17;;;;;;;3.50;1.40;;;27.50;77.50;;;;;;4951992;28;20049;-74
2023/08/18 09:31:52;;;;;;;3.47;1.30;;;27.60;76.90;;;;;;4977531;28;20364;-74
2023/08/18 09:34:42;;;;;;;7.95;1.40;;;27.60;76.30;;;;;;4948579;29;20058;-75
2023/08/18 09:37:10;;;;;;;5.28;1.90;;;27.80;75.20;;;;;;4947958;29;20027;-76
2023/08/18 09:39:40;;;;;;;3.63;1.38;;;27.90;75.70;;;;;;4948510;29;20221;-74
2023/08/18 09:42:35;;;;;;;6.57;3.58;;;28.00;75.10;;;;;;4965048;29;20035;-75
2023/08/18 09:45:02;;;;;;;4.18;1.83;;;28.20;74.90;;;;;;4964942;29;20031;-77
2023/08/18 09:47:30;;;;;;;3.30;1.23;;;28.20;74.20;;;;;;4965285;29;20087;-75
2023/08/18 09:50:00;;;;;;;5.95;1.55;;;28.20;74.00;;;;;;4964933;29;20042;-78
2023/08/18 09:52:28;;;;;;;5.25;1.75;;;28.30;74.10;;;;;;4965058;29;20023;-73
2023/08/18 09:55:06;;;;;;;5.30;1.30;;;28.40;73.00;;;;;;4964629;29;20102;-74
2023/08/18 09:57:49;;;;;;;2.90;1.15;;;28.50;72.90;;;;;;4965018;29;20186;-74
2023/08/18 10:00:19;;;;;;;3.15;1.13;;;28.50;72.70;;;;;;4964902;29;20070;-75
2023/08/18 10:03:08;;;;;;;2.40;1.20;;;28.60;72.20;;;;;;4965160;29;20313;-74
2023/08/18 10:06:00;;;;;;;3.33;1.35;;;28.60;72.60;;;;;;4950899;29;20062;-74
2023/08/18 10:08:31;;;;;;;4.05;1.20;;;28.70;72.30;;;;;;4964813;29;20027;-75
2023/08/18 10:11:37;;;;;;;4.70;1.30;;;28.80;72.70;;;;;;4951135;29;20027;-75
2023/08/18 10:14:04;;;;;;;3.67;1.40;;;28.90;72.30;;;;;;4964521;29;20060;-73
2023/08/18 10:16:32;;;;;;;5.75;1.40;;;28.90;71.20;;;;;;4966412;28;20099;-77
2023/08/18 10:19:07;;;;;;;3.95;1.38;;;29.10;72.20;;;;;;4947413;29;20027;-75
2023/08/18 10:21:32;;;;;;;4.50;1.40;;;29.20;71.60;;;;;;4955372;28;20072;-73
2023/08/18 10:24:03;;;;;;;3.50;1.35;;;29.30;71.90;;;;;;4987747;28;20328;-74
2023/08/18 10:26:29;;;;;;;4.88;1.33;;;29.30;71.40;;;;;;4984041;28;20031;-74
2023/08/18 10:29:21;;;;;;;2.70;1.20;;;29.30;71.50;;;;;;4983618;28;20034;-73
2023/08/18 10:31:58;;;;;;;4.63;1.42;;;29.40;71.30;;;;;;4967915;28;20042;-73
2023/08/18 10:34:24;;;;;;;6.30;1.33;;;29.50;71.00;;;;;;4983729;28;20194;-73
2023/08/18 10:36:59;;;;;;;4.65;1.70;;;29.60;70.70;;;;;;4983904;28;20023;-75
2023/08/18 10:39:26;;;;;;;4.10;1.80;;;29.70;69.20;;;;;;4984216;28;20030;-74
2023/08/18 10:42:14;;;;;;;6.70;4.50;;;29.70;69.50;;;;;;4983993;28;20368;-74
2023/08/18 10:45:08;;;;;;;5.18;1.40;;;29.80;70.10;;;;;;4966580;28;20205;-73
2023/08/18 10:47:35;;;;;;;4.05;1.40;;;29.90;69.60;;;;;;4967057;28;20022;-74
2023/08/18 10:50:04;;;;;;;3.88;0.95;;;30.00;69.10;;;;;;4969806;28;20068;-74
2023/08/18 10:52:33;;;;;;;7.72;1.42;;;30.10;69.20;;;;;;4987397;28;20107;-75
2023/08/18 10:55:03;;;;;;;4.20;1.23;;;30.30;69.40;;;;;;4987481;28;20027;-77
2023/08/18 10:57:29;;;;;;;3.45;1.10;;;30.50;68.50;;;;;;4970485;28;20088;-75
2023/08/18 11:00:27;;;;;;;4.70;0.90;;;30.60;67.70;;;;;;4955149;28;20026;-75
2023/08/18 11:03:03;;;;;;;3.08;0.95;;;30.80;67.00;;;;;;4987319;28;20051;-75
2023/08/18 11:05:33;;;;;;;3.15;1.42;;;30.80;67.10;;;;;;4971560;28;20018;-77
2023/08/18 11:08:01;;;;;;;3.22;0.88;;;30.90;66.00;;;;;;4986803;28;20042;-75
2023/08/18 11:10:33;;;;;;;3.67;1.10;;;31.00;65.30;;;;;;4962840;28;20315;-76
2023/08/18 11:13:00;;;;;;;3.63;1.13;;;31.20;64.40;;;;;;4952141;28;20025;-74
2023/08/18 11:15:26;;;;;;;3.67;1.20;;;31.40;64.50;;;;;;4975129;28;20149;-77
2023/08/18 11:17:52;;;;;;;4.95;1.45;;;31.60;64.60;;;;;;4951357;29;20050;-76
2023/08/18 11:20:19;;;;;;;2.70;1.13;;;31.80;64.00;;;;;;4950279;28;20375;-75
2023/08/18 11:22:51;;;;;;;4.65;1.10;;;32.00;63.90;;;;;;4979535;28;20069;-76
2023/08/18 11:25:42;;;;;;;5.47;1.23;;;32.30;63.60;;;;;;4969476;28;20325;-74
2023/08/18 11:28:08;;;;;;;3.70;1.15;;;32.90;59.40;;;;;;4986898;28;20046;-76
2023/08/18 11:30:35;;;;;;;4.20;0.95;;;33.40;57.70;;;;;;4970189;28;20018;-77
2023/08/18 11:33:00;;;;;;;2.95;0.70;;;34.00;58.00;;;;;;4969725;28;20031;-77
2023/08/18 11:35:29;;;;;;;3.30;1.15;;;34.60;57.80;;;;;;4987128;28;20107;-75
2023/08/18 11:37:58;;;;;;;3.45;1.38;;;35.30;57.30;;;;;;4969954;28;20050;-75
2023/08/18 11:40:24;;;;;;;2.58;0.90;;;36.00;57.30;;;;;;4953754;28;20027;-76
2023/08/18 11:42:52;;;;;;;4.15;0.82;;;36.60;55.30;;;;;;4969230;28;20031;-77
2023/08/18 11:45:26;;;;;;;3.70;0.85;;;37.60;53.20;;;;;;4958923;28;20619;-76
2023/08/18 11:48:00;;;;;;;2.08;0.82;;;38.10;52.80;;;;;;4934786;29;20027;-76
2023/08/18 11:50:34;;;;;;;3.47;0.80;;;38.10;52.00;;;;;;4989895;28;20039;-75
2023/08/18 11:53:01;;;;;;;3.35;0.80;;;38.40;52.40;;;;;;4986545;28;20243;-75
2023/08/18 11:55:35;;;;;;;2.25;0.90;;;39.80;51.30;;;;;;4986646;28;20031;-75
2023/08/18 11:58:13;;;;;;;3.38;1.05;;;40.50;51.30;;;;;;4986057;28;20022;-76
2023/08/18 12:00:40;;;;;;;1.92;0.90;;;41.30;49.50;;;;;;4985372;28;20058;-77
2023/08/18 12:03:07;;;;;;;;;;;41.40;49.30;;;;;;4986787;28;20041;-75
2023/08/18 12:05:37;;;;;;;2.95;0.85;;;42.40;48.60;;;;;;4986385;28;19912;-82
2023/08/18 12:08:08;;;;;;;2.72;0.80;;;42.90;47.60;;;;;;4969202;28;20022;-78
2023/08/18 12:10:34;;;;;;;3.88;0.80;;;42.70;47.00;;;;;;4986816;28;20035;-75
2023/08/18 12:13:00;;;;;;;3.63;0.93;;;42.40;47.30;;;;;;4986346;28;20061;-78
2023/08/18 12:15:26;;;;;;;4.72;1.20;;;42.60;47.70;;;;;;4986201;28;20097;-77
2023/08/18 12:17:53;;;;;;;2.88;0.90;;;43.30;47.00;;;;;;4986248;28;20253;-75
2023/08/18 12:20:19;;;;;;;2.60;0.80;;;43.20;46.90;;;;;;4968822;28;20031;-76
2023/08/18 12:22:47;;;;;;;3.65;0.80;;;44.10;46.70;;;;;;4990906;28;20050;-78
2023/08/18 12:25:13;;;;;;;3.95;0.90;;;43.70;46.10;;;;;;4985712;28;20019;-78
2023/08/18 12:27:39;;;;;;;2.80;0.80;;;44.00;46.00;;;;;;4990573;28;20096;-77
2023/08/18 12:30:07;;;;;;;3.90;0.90;;;45.00;45.80;;;;;;5005152;28;20056;-77
2023/08/18 12:32:33;;;;;;;2.17;0.70;;;45.60;44.90;;;;;;5005537;28;20304;-75
2023/08/18 12:34:59;;;;;;;1.67;0.80;;;46.20;44.80;;;;;;4988498;28;20022;-74
2023/08/18 12:37:25;;;;;;;3.42;1.13;;;45.60;44.40;;;;;;5000926;28;20049;-74
2023/08/18 12:39:52;;;;;;;3.33;1.00;;;45.50;45.10;;;;;;4995361;28;20023;-76
2023/08/18 12:42:23;;;;;;;4.13;1.42;;;45.90;44.30;;;;;;4952522;28;20416;-77
2023/08/18 12:44:50;;;;;;;3.58;0.93;;;46.80;43.80;;;;;;4949877;29;20105;-77
2023/08/18 12:47:16;;;;;;;;;;;47.10;43.10;;;;;;4966581;29;20031;-79
2023/08/18 12:49:45;;;;;;;3.20;0.98;;;47.60;43.30;;;;;;4949617;29;19914;-80
2023/08/18 12:52:35;;;;;;;3.45;0.98;;;47.50;43.10;;;;;;4949212;29;20034;-75
2023/08/18 12:55:07;;;;;;;2.42;0.95;;;46.60;43.30;;;;;;4966135;29;20094;-77
2023/08/18 12:57:35;;;;;;;2.38;1.00;;;47.30;43.20;;;;;;4960574;28;20058;-75
2023/08/18 13:00:11;;;;;;;4.17;1.00;;;47.10;43.30;;;;;;5004782;28;20050;-76
2023/08/18 13:02:42;;;;;;;4.18;0.90;;;47.90;42.70;;;;;;4986129;28;20450;-75
2023/08/18 13:05:08;;;;;;;5.78;1.00;;;47.10;42.40;;;;;;4991190;28;20053;-78
2023/08/18 13:07:34;;;;;;;2.97;0.90;;;47.80;42.60;;;;;;4983272;28;20027;-78
2023/08/18 13:10:00;;;;;;;3.77;0.80;;;47.70;42.40;;;;;;4966511;28;20312;-75
2023/08/18 13:12:26;;;;;;;3.53;1.20;;;47.00;42.20;;;;;;4970963;28;20026;-78
2023/08/18 13:15:12;;;;;;;3.13;0.82;;;47.90;42.80;;;;;;4970315;28;20053;-77
2023/08/18 13:17:39;;;;;;;3.05;1.10;;;48.80;42.20;;;;;;4985102;28;20031;-77
2023/08/18 13:20:06;;;;;;;;;;;49.30;40.40;;;;;;4967749;28;20035;-77
2023/08/18 13:22:35;;;;;;;3.78;1.10;;;48.10;41.10;;;;;;4989345;28;19920;-76
2023/08/18 13:25:11;;;;;;;4.15;1.00;;;48.40;40.80;;;;;;4949000;29;20059;-78
2023/08/18 13:27:42;;;;;;;4.28;1.00;;;48.40;40.50;;;;;;4965896;29;20067;-74
2023/08/18 13:30:09;;;;;;;3.22;1.25;;;49.20;41.20;;;;;;4966362;28;20030;-74
2023/08/18 13:32:38;;;;;;;3.85;1.00;;;49.90;40.50;;;;;;4984827;28;20034;-76
2023/08/18 13:35:09;;;;;;;3.85;1.30;;;49.60;39.90;;;;;;4985140;28;20069;-76
2023/08/18 13:37:36;;;;;;;5.95;1.00;;;49.70;40.00;;;;;;4951872;28;20343;-75
2023/08/18 13:40:02;;;;;;;3.40;1.20;;;49.60;40.10;;;;;;4951750;28;20031;-75
2023/08/18 13:42:31;;;;;;;4.53;1.30;;;48.90;40.20;;;;;;4984274;28;20042;-75
2023/08/18 13:44:57;;;;;;;2.70;0.90;;;48.60;41.20;;;;;;4951862;28;20031;-74
2023/08/18 13:47:23;;;;;;;4.25;1.30;;;50.30;40.10;;;;;;4984428;28;20024;-76
2023/08/18 13:49:49;;;;;;;3.42;1.00;;;50.80;39.60;;;;;;4984492;28;20031;-76
2023/08/18 13:52:16;;;;;;;;;;;51.50;40.30;;;;;;4966161;28;20228;-76
2023/08/18 13:54:42;;;;;;;3.80;1.33;;;51.20;38.60;;;;;;4965244;29;19966;-75
2023/08/18 13:57:08;;;;;;;3.90;1.73;;;52.30;38.90;;;;;;4970152;28;20018;-75
2023/08/18 13:59:33;;;;;;;4.00;1.17;;;52.30;38.20;;;;;;4967374;28;20066;-76
2023/08/18 14:01:59;;;;;;;;;;;52.60;38.10;;;;;;4985157;28;20031;-75
2023/08/18 14:04:25;;;;;;;3.75;1.20;;;52.00;37.80;;;;;;4983590;28;19934;-75
2023/08/18 14:06:52;;;;;;;3.92;1.50;;;50.30;38.30;;;;;;4984102;28;20089;-76
2023/08/18 14:09:20;;;;;;;3.30;1.25;;;49.20;38.70;;;;;;4996694;28;20034;-76
2023/08/18 14:11:47;;;;;;;4.60;1.30;;;49.70;39.90;;;;;;5003671;28;20052;-74
2023/08/18 14:14:13;;;;;;;6.35;1.30;;;51.10;39.80;;;;;;4991622;28;20043;-76
2023/08/18 14:16:39;;;;;;;5.70;1.20;;;51.10;41.10;;;;;;4984468;28;20034;-74
2023/08/18 14:19:04;;;;;;;2.38;0.98;;;51.20;38.30;;;;;;4984454;28;20030;-76
2023/08/18 14:21:31;;;;;;;2.78;0.90;;;49.40;38.60;;;;;;4983442;28;20046;-72
2023/08/18 14:23:56;;;;;;;4.00;1.20;;;49.70;39.50;;;;;;4983253;28;20043;-74
2023/08/18 14:26:22;;;;;;;2.55;0.90;;;51.20;38.90;;;;;;4966664;28;20197;-74
2023/08/18 14:28:48;;;;;;;4.03;1.10;;;52.40;38.80;;;;;;4984236;28;20041;-76
2023/08/18 14:31:14;;;;;;;5.22;1.55;;;52.80;39.10;;;;;;4983603;28;20201;-74
2023/08/18 14:33:40;;;;;;;4.38;1.25;;;52.90;38.70;;;;;;4984292;28;20039;-76
2023/08/18 14:36:05;;;;;;;;;;;52.50;37.80;;;;;;4984422;28;20035;-76
2023/08/18 14:38:34;;;;;;;3.83;1.10;;;53.40;38.40;;;;;;4983192;28;19941;-76
2023/08/18 14:41:03;;;;;;;3.17;1.38;;;53.30;38.20;;;;;;4984245;28;20304;-77
2023/08/18 14:43:28;;;;;;;3.25;1.23;;;53.70;37.20;;;;;;4966185;28;20228;-75
2023/08/18 14:45:54;;;;;;;5.00;1.38;;;53.30;37.30;;;;;;4983750;28;20237;-76
2023/08/18 14:48:20;;;;;;;5.10;1.38;;;53.00;37.10;;;;;;4966076;28;20035;-75
2023/08/18 14:50:49;;;;;;;3.42;1.27;;;52.70;37.60;;;;;;4983965;28;20323;-76
2023/08/18 14:53:14;;;;;;;3.03;1.00;;;52.20;37.20;;;;;;4983228;28;20030;-74
2023/08/18 14:55:41;;;;;;;2.97;1.13;;;51.90;37.50;;;;;;4983564;28;20058;-75
2023/08/18 14:58:07;;;;;;;2.22;1.10;;;52.10;38.70;;;;;;4983526;28;20036;-74
2023/08/18 15:00:34;;;;;;;2.67;1.02;;;52.60;37.70;;;;;;4982841;28;20034;-74
2023/08/18 15:03:03;;;;;;;3.90;1.63;;;52.90;37.60;;;;;;4983729;28;20066;-74
2023/08/18 15:05:29;;;;;;;6.30;1.88;;;53.10;37.30;;;;;;4982880;28;20031;-74
2023/08/18 15:07:54;;;;;;;3.13;1.17;;;52.90;37.60;;;;;;4966534;28;20034;-74
2023/08/18 15:10:20;;;;;;;3.15;1.00;;;52.90;38.20;;;;;;4950352;28;20034;-75
2023/08/18 15:12:48;;;;;;;4.95;1.17;;;52.60;38.40;;;;;;4983666;28;20019;-74
2023/08/18 15:15:13;;;;;;;3.70;1.25;;;52.60;38.60;;;;;;4982798;28;20377;-74
2023/08/18 15:17:39;;;;;;;5.68;1.27;;;53.20;37.70;;;;;;4966292;28;20046;-75
2023/08/18 15:20:06;;;;;;;3.88;1.30;;;52.80;36.80;;;;;;4983544;28;20297;-76
2023/08/18 15:22:32;;;;;;;5.13;1.42;;;50.70;36.60;;;;;;4965072;28;20058;-74
2023/08/18 15:24:58;;;;;;;2.83;1.10;;;49.50;37.30;;;;;;4950208;28;20273;-75
2023/08/18 15:27:24;;;;;;;3.63;1.20;;;49.30;38.60;;;;;;4965431;28;20027;-75
2023/08/18 15:29:49;;;;;;;6.40;1.50;;;49.50;37.40;;;;;;4965940;28;20037;-74
2023/08/18 15:32:15;;;;;;;3.87;1.07;;;50.40;38.90;;;;;;4965528;28;20306;-75
2023/08/18 15:34:41;;;;;;;3.10;1.00;;;51.30;38.40;;;;;;4967086;28;20470;-74
2023/08/18 15:37:07;;;;;;;3.22;1.13;;;52.70;38.30;;;;;;4987237;28;20046;-74
2023/08/18 15:39:32;;;;;;;4.07;1.13;;;53.10;38.50;;;;;;4986147;28;20308;-74
2023/08/18 15:41:58;;;;;;;3.75;1.27;;;52.60;38.10;;;;;;4986724;28;20061;-74
2023/08/18 15:44:24;;;;;;;2.00;0.80;;;52.20;38.40;;;;;;4986287;28;20035;-75
2023/08/18 15:46:51;;;;;;;2.22;1.05;;;52.20;38.60;;;;;;4969410;28;20454;-75
2023/08/18 15:49:20;;;;;;;3.60;1.15;;;52.10;39.00;;;;;;4986662;28;20030;-76
2023/08/18 15:51:45;;;;;;;3.05;1.13;;;52.10;39.10;;;;;;4953000;28;20026;-74
2023/08/18 15:54:11;;;;;;;4.65;0.98;;;51.80;38.60;;;;;;4969516;28;20026;-75
2023/08/18 15:56:37;;;;;;;2.83;1.10;;;51.60;39.30;;;;;;4986021;28;20093;-76
2023/08/18 15:59:04;;;;;;;3.87;0.83;;;51.50;39.40;;;;;;4986494;28;20035;-75
2023/08/18 16:01:30;;;;;;;2.95;1.08;;;50.90;39.10;;;;;;4968462;28;20019;-75
2023/08/18 16:04:11;;;;;;;3.60;1.07;;;50.00;39.60;;;;;;4986368;28;20110;-74
2023/08/18 16:06:39;;;;;;;3.53;1.02;;;49.90;40.10;;;;;;4968782;28;20026;-75
2023/08/18 16:09:05;;;;;;;2.45;1.10;;;49.70;39.90;;;;;;4969357;28;20027;-75
2023/08/18 16:11:33;;;;;;;3.38;0.90;;;48.70;41.00;;;;;;4968511;28;20110;-75
2023/08/18 16:13:59;;;;;;;3.75;1.00;;;48.00;41.00;;;;;;4986235;28;20045;-76
2023/08/18 16:16:25;;;;;;;3.63;0.85;;;48.20;41.20;;;;;;4968719;28;20018;-75
2023/08/18 16:18:50;;;;;;;3.55;1.58;;;48.50;41.00;;;;;;4969225;28;20023;-75
2023/08/18 16:21:19;;;;;;;5.15;1.17;;;48.50;40.90;;;;;;4952418;28;20082;-75
2023/08/18 16:23:45;;;;;;;4.05;0.85;;;48.00;41.10;;;;;;4986389;28;20074;-75
2023/08/18 16:26:11;;;;;;;1.98;0.90;;;47.90;41.50;;;;;;4968998;28;20034;-76
2023/08/18 16:28:39;;;;;;;2.08;0.85;;;48.00;41.40;;;;;;4985519;28;20035;-74
2023/08/18 16:31:05;;;;;;;3.40;1.20;;;47.90;41.80;;;;;;4968868;28;20037;-74
2023/08/18 16:33:33;;;;;;;2.55;0.93;;;48.70;41.50;;;;;;4985566;28;20026;-76
2023/08/18 16:36:03;;;;;;;4.70;1.05;;;48.40;41.10;;;;;;4968650;28;20035;-75
2023/08/18 16:38:29;;;;;;;3.08;1.10;;;48.50;41.40;;;;;;4968058;28;20030;-76
2023/08/18 16:41:01;;;;;;;3.40;1.27;;;49.10;41.30;;;;;;4968624;28;20034;-77
2023/08/18 16:43:37;;;;;;;4.03;1.50;;;49.20;41.50;;;;;;4968239;28;20106;-78
2023/08/18 16:46:12;;;;;;;4.07;1.05;;;49.20;40.60;;;;;;4968000;28;20038;-74
2023/08/18 16:48:38;;;;;;;4.45;1.08;;;48.70;40.80;;;;;;4985144;28;20030;-77
2023/08/18 16:51:04;;;;;;;3.05;1.45;;;48.80;40.90;;;;;;4985606;28;20034;-76
2023/08/18 16:53:30;;;;;;;4.28;1.05;;;48.60;40.70;;;;;;4967603;28;20065;-76
2023/08/18 16:55:55;;;;;;;3.50;1.38;;;48.20;41.10;;;;;;4985695;28;20031;-75
2023/08/18 16:58:21;;;;;;;2.78;1.08;;;47.80;41.30;;;;;;4985112;28;20094;-75
2023/08/18 17:00:47;;;;;;;3.88;1.30;;;47.10;42.00;;;;;;4985626;28;20026;-75
2023/08/18 17:03:13;;;;;;;3.40;1.17;;;45.80;43.20;;;;;;4968166;28;20093;-76
2023/08/18 17:05:38;;;;;;;4.20;1.25;;;44.30;44.40;;;;;;4967754;28;20037;-76
2023/08/18 17:08:05;;;;;;;5.97;1.20;;;42.90;46.00;;;;;;4985090;28;20043;-74
2023/08/18 17:10:32;;;;;;;5.97;1.63;;;41.00;47.80;;;;;;4967615;28;20106;-74
2023/08/18 17:12:59;;;;;;;3.42;1.23;;;39.70;49.30;;;;;;4985003;28;20026;-75
2023/08/18 17:15:27;;;;;;;3.08;1.48;;;38.80;50.40;;;;;;4967903;28;20105;-76
2023/08/18 17:18:03;;;;;;;3.53;1.50;;;38.30;51.70;;;;;;4985237;28;20038;-81
2023/08/18 17:20:29;;;;;;;5.78;1.30;;;37.80;52.10;;;;;;4984781;28;20026;-76
2023/08/18 17:22:55;;;;;;;3.85;1.48;;;37.40;52.80;;;;;;4967394;28;20042;-79
2023/08/18 17:25:20;;;;;;;5.30;1.48;;;37.00;54.00;;;;;;4951748;28;20026;-76
2023/08/18 17:28:03;;;;;;;3.90;1.52;;;36.80;53.90;;;;;;4968556;28;20139;-77
2023/08/18 17:30:28;;;;;;;5.45;1.40;;;36.40;54.20;;;;;;4984826;28;20023;-77
2023/08/18 17:32:54;;;;;;;4.15;1.50;;;36.00;54.20;;;;;;4985128;28;20216;-79
2023/08/18 17:35:20;;;;;;;6.07;1.83;;;35.70;54.90;;;;;;4985289;28;20084;-76
2023/08/18 17:37:45;;;;;;;3.03;1.50;;;35.60;54.90;;;;;;4969054;28;20269;-77
2023/08/18 17:40:11;;;;;;;5.30;1.88;;;35.50;55.30;;;;;;4984607;28;20308;-77
2023/08/18 17:42:39;;;;;;;6.20;1.60;;;35.30;55.40;;;;;;4983948;28;20038;-77
2023/08/18 17:45:06;;;;;;;;;;;35.00;55.70;;;;;;4968069;28;20208;-77
2023/08/18 17:47:32;;;;;;;3.17;1.60;;;34.80;56.20;;;;;;4984127;28;19912;-79
2023/08/18 17:49:58;;;;;;;3.30;1.40;;;34.60;56.50;;;;;;4984746;28;20228;-76
2023/08/18 17:52:23;;;;;;;3.70;1.83;;;34.50;56.70;;;;;;4983891;28;20053;-77
2023/08/18 17:54:49;;;;;;;6.70;2.10;;;34.40;57.10;;;;;;4984530;28;20038;-77
2023/08/18 17:57:15;;;;;;;4.18;1.73;;;34.20;57.00;;;;;;4984580;28;20186;-76
2023/08/18 17:59:41;;;;;;;6.05;4.88;;;34.00;57.50;;;;;;4983734;28;20049;-78
2023/08/18 18:02:06;;;;;;;6.88;3.10;;;34.00;58.00;;;;;;4967369;28;20042;-76
2023/08/18 18:04:35;;;;;;;5.47;2.88;;;33.90;57.80;;;;;;4984324;28;20039;-82
2023/08/18 18:07:01;;;;;;;6.32;2.60;;;33.80;58.30;;;;;;4967637;28;20069;-75
2023/08/18 18:09:26;;;;;;;4.20;1.60;;;33.50;58.30;;;;;;4983813;28;20026;-75
2023/08/18 18:11:53;;;;;;;4.97;2.10;;;33.30;58.80;;;;;;4984379;28;20026;-74
2023/08/18 18:14:27;;;;;;;4.82;2.20;;;33.10;59.00;;;;;;4967513;28;20030;-78
2023/08/18 18:16:53;;;;;;;3.25;1.50;;;32.90;59.70;;;;;;4951435;28;20029;-78
2023/08/18 18:19:19;;;;;;;6.85;1.85;;;32.80;59.60;;;;;;4951346;28;20022;-75
2023/08/18 18:21:45;;;;;;;3.75;1.50;;;32.50;59.90;;;;;;4950478;28;20118;-76
2023/08/18 18:24:13;;;;;;;4.38;2.00;;;32.30;60.40;;;;;;4967155;28;20026;-78
2023/08/18 18:26:38;;;;;;;;;;;32.10;60.30;;;;;;4966330;28;20042;-76
2023/08/18 18:29:04;;;;;;;4.90;1.60;;;32.00;60.60;;;;;;4966461;28;19983;-76
2023/08/18 18:31:33;;;;;;;3.90;1.50;;;31.80;60.90;;;;;;4979245;28;20058;-78
2023/08/18 18:34:00;;;;;;;5.35;1.58;;;31.60;61.30;;;;;;4948685;28;20034;-76
2023/08/18 18:36:26;;;;;;;3.90;1.67;;;31.40;61.40;;;;;;4974184;28;20027;-77
2023/08/18 18:38:51;;;;;;;6.07;1.90;;;31.30;62.00;;;;;;4970109;28;20045;-76
2023/08/18 18:41:17;;;;;;;4.63;2.10;;;31.10;62.60;;;;;;4976961;28;20034;-77
2023/08/18 18:44:13;;;;;;;13.77;8.88;;;31.00;63.10;;;;;;4976966;28;20326;-77
2023/08/18 18:46:42;;;;;;;5.95;2.60;;;30.90;63.40;;;;;;4954730;28;20034;-78
2023/08/18 18:49:09;;;;;;;8.95;2.40;;;30.90;63.80;;;;;;4999239;28;20034;-76
2023/08/18 18:51:35;;;;;;;4.78;2.38;;;30.70;64.00;;;;;;4988620;28;20322;-76
2023/08/18 18:54:01;;;;;;;3.08;1.70;;;30.60;64.40;;;;;;4994716;28;20023;-76
2023/08/18 18:56:27;;;;;;;4.78;1.90;;;30.40;64.50;;;;;;4956372;28;20033;-77
2023/08/18 18:58:56;;;;;;;4.88;2.05;;;30.30;65.00;;;;;;4958579;28;20251;-77
2023/08/18 19:01:22;;;;;;;5.28;2.45;;;30.10;65.20;;;;;;4953759;28;20042;-75
2023/08/18 19:03:48;;;;;;;4.95;2.10;;;30.00;65.40;;;;;;4958647;28;20018;-77
2023/08/18 19:06:14;;;;;;;4.45;2.03;;;29.90;65.60;;;;;;4958441;28;20042;-75
2023/08/18 19:08:41;;;;;;;4.28;1.95;;;29.80;65.90;;;;;;4975556;28;20204;-76
2023/08/18 19:11:07;;;;;;;7.00;5.18;;;29.70;66.00;;;;;;4973747;28;20075;-77
2023/08/18 19:13:34;;;;;;;6.70;3.03;;;29.60;66.20;;;;;;4983765;28;20030;-76
2023/08/18 19:16:00;;;;;;;7.38;3.08;;;29.50;66.70;;;;;;4992539;28;20053;-76
2023/08/18 19:18:26;;;;;;;5.53;2.50;;;29.50;66.90;;;;;;4985698;28;20026;-77
2023/08/18 19:20:52;;;;;;;5.68;2.80;;;29.40;67.40;;;;;;4983398;28;20050;-75
2023/08/18 19:23:18;;;;;;;6.25;2.50;;;29.30;67.40;;;;;;4965924;28;20022;-74
2023/08/18 19:25:43;;;;;;;4.93;2.05;;;29.20;67.80;;;;;;4969564;28;20217;-75
2023/08/18 19:28:09;;;;;;;6.55;2.45;;;29.10;67.90;;;;;;4987235;28;20046;-78
2023/08/18 19:30:35;;;;;;;6.30;2.65;;;29.00;68.00;;;;;;4986583;28;20027;-76
2023/08/18 19:33:01;;;;;;;5.72;2.30;;;29.00;69.30;;;;;;4983090;28;20026;-75
2023/08/18 19:35:27;;;;;;;6.47;2.42;;;28.90;69.10;;;;;;4986639;28;20255;-77
2023/08/18 19:37:53;;;;;;;5.28;2.30;;;28.90;68.80;;;;;;4987259;28;20057;-75
2023/08/18 19:40:19;;;;;;;5.38;2.13;;;28.80;69.10;;;;;;4986784;28;20224;-75
2023/08/18 19:42:44;;;;;;;5.53;2.30;;;28.80;69.50;;;;;;4974099;28;20022;-76
2023/08/18 19:45:10;;;;;;;4.78;2.17;;;28.70;69.60;;;;;;4972953;28;20320;-78
2023/08/18 19:47:36;;;;;;;5.75;2.80;;;28.60;70.00;;;;;;4983470;28;20328;-77